Maribor, Slovenia

3:33 AM CEST on March 26, 2017 (GMT +0200)
Brezula - Race | | Change Station

Elev 836 ft 46.44 °N, 15.70 °E | Updated 3 minutes ago

Partly Cloudy
Partly Cloudy
39.7 °F
Feels Like 40 °F
N
0.2
Wind Variable Wind from SW
Gusts 1.3 mph

Today
High -- | Low -- °F
--% Chance of Precip.
Yesterday
High -- | Low -- °F
Precip. -- in
Pressure 30.09 in
Visibility 6.2 miles
Clouds
Windchill 40 °F
Dew Point 36 °F
Humidity 87%
Rainfall 0.00 in
Snow Depth Not available.
6:48 AM 7:18 PM
Waning Crescent, 5% visible
METAR LJCE 260100Z AUTO 00000KT 9999 NCD 03/01 Q1019
Pressure 30.09 in
Visibility 6.2 miles
Clouds
Windchill 40 °F
Dew Point 36 °F
Humidity 87%
Rainfall 0.00 in
Snow Depth Not available.
6:48 AM 7:18 PM
Waning Crescent, 5% visible
METAR LJCE 260100Z AUTO 00000KT 9999 NCD 03/01 Q1019

Get Severe Weather Alerts

Thanks for signing up!

Be on the lookout for a verification email in your inbox.

You'll start receiving the daily forecast at 8 AM.

×

10-Day Weather Forecast

×

Almanac

Astronomy

Mar. 26, 2017 Rise Set
Actual Time
Civil Twilight
Nautical Twilight
Astronomical Twilight
Moon
Length of Visible Light
Length of Day
Tomorrow will be .
, % of the Moon is Illuminated

Today's Extremes

Country Highs Country Lows

Community

WunderPhotos

Upload Photos

1,962,540 photos uploaded!

WunderBlog® & News

Nearby

Air Quality

  Air Quality AQ Index Pollutant
Not available.

Snow Depth

Station Depth Elevation

Earthquake Activity

City Distance Mag. Time & Date
Minimum magnitude displayed is 2.5.

Earthquake Activity

City Distance Mag. Time & Date
Minimum magnitude displayed is 2.5.

Coastal Water Temperatures

Place Temperature

Stations

Nearby Weather Stations

Station Location Temp. Windchill Dew Point Humidity Wind Precip. Elev Updated Type